createdAt,value
2018-11-21T00:00:42.647Z,99.02
2018-11-21T00:03:31.801Z,99.16
2018-11-21T00:06:14.917Z,98.95
2018-11-21T00:09:05.127Z,99.25
2018-11-21T00:11:49.176Z,99.20
2018-11-21T00:14:57.523Z,98.94
2018-11-21T00:17:39.755Z,98.92
2018-11-21T00:23:25.683Z,98.11
2018-11-21T00:26:37.798Z,97.91
2018-11-21T00:29:20.412Z,97.64
2018-11-21T00:32:30.188Z,97.69
2018-11-21T00:38:13.260Z,96.89
2018-11-21T00:41:02.685Z,97.18
2018-11-21T00:43:45.186Z,97.11
2018-11-21T00:49:27.216Z,97.09
2018-11-21T00:52:16.573Z,96.77
2018-11-21T00:55:06.154Z,96.31
2018-11-21T00:57:48.112Z,96.26
2018-11-21T01:00:37.733Z,96.15
2018-11-21T01:03:27.816Z,96.25
2018-11-21T01:06:17.357Z,96.46
2018-11-21T01:09:07.856Z,97.23
2018-11-21T01:11:57.407Z,97.56
2018-11-21T01:14:47.054Z,97.94
2018-11-21T01:17:36.668Z,97.98
2018-11-21T01:20:25.942Z,97.78
2018-11-21T01:23:15.677Z,97.79
2018-11-21T01:26:05.252Z,97.31
2018-11-21T01:28:54.480Z,97.10
2018-11-21T01:31:44.428Z,97.67
2018-11-21T01:34:34.107Z,98.15
2018-11-21T01:37:23.744Z,98.31
2018-11-21T01:40:07.278Z,98.43
2018-11-21T01:42:56.828Z,98.65
2018-11-21T01:45:46.392Z,98.91
2018-11-21T01:48:36.939Z,99.21
2018-11-21T01:51:26.548Z,99.42
2018-11-21T01:54:16.171Z,99.29
2018-11-21T01:57:05.742Z,99.45
2018-11-21T01:59:55.584Z,99.42
2018-11-21T02:02:45.107Z,99.39
2018-11-21T02:05:14.856Z,99.53
2018-11-21T02:08:14.992Z,99.92
2018-11-21T02:14:01.030Z,99.98
2018-11-21T02:35:26.776Z,100.00
2018-11-21T02:38:09.112Z,100.00
2018-11-21T02:40:58.855Z,100.00
2018-11-21T02:43:48.352Z,100.00
2018-11-21T02:46:37.838Z,100.00
2018-11-21T02:49:27.905Z,100.00
2018-11-21T02:52:17.417Z,100.00
2018-11-21T02:55:07.118Z,100.00
2018-11-21T02:57:56.379Z,100.00
2018-11-21T03:00:45.668Z,100.00
2018-11-21T03:03:35.265Z,100.00
2018-11-21T03:06:24.736Z,100.00
2018-11-21T03:09:07.457Z,100.00
2018-11-21T03:11:56.633Z,100.00
2018-11-21T03:14:41.292Z,100.00
2018-11-21T03:17:30.679Z,100.00
2018-11-21T03:20:12.467Z,99.93
2018-11-21T03:23:01.978Z,99.77
2018-11-21T03:25:44.721Z,98.78
2018-11-21T03:28:34.109Z,98.84
2018-11-21T03:31:16.083Z,98.01
2018-11-21T03:34:05.341Z,98.12
2018-11-21T03:36:51.102Z,98.73
2018-11-21T03:39:40.462Z,99.37
2018-11-21T03:42:23.057Z,99.94
2018-11-21T03:45:13.301Z,100.00
2018-11-21T03:47:55.502Z,100.00
2018-11-21T03:50:45.546Z,100.00
2018-11-21T03:53:34.883Z,100.00
2018-11-21T03:56:24.369Z,100.00
2018-11-21T03:59:14.330Z,99.30
2018-11-21T04:02:04.210Z,98.26
2018-11-21T04:04:53.777Z,97.76
2018-11-21T04:07:43.850Z,96.48
2018-11-21T04:10:33.347Z,96.35
2018-11-21T04:13:42.137Z,96.78
2018-11-21T04:16:31.433Z,96.23
2018-11-21T04:19:20.641Z,96.33
2018-11-21T04:22:10.698Z,95.94
2018-11-21T04:25:00.222Z,95.19
2018-11-21T04:27:50.228Z,95.05
2018-11-21T04:30:40.341Z,94.16
2018-11-21T04:33:30.016Z,93.31
2018-11-21T04:36:19.152Z,94.16
2018-11-21T04:39:09.757Z,94.86
2018-11-21T04:41:59.186Z,94.70
2018-11-21T04:44:28.996Z,94.13
2018-11-21T04:47:18.328Z,94.06
2018-11-21T04:50:01.129Z,94.30
2018-11-21T04:52:50.732Z,94.24
2018-11-21T04:55:40.020Z,93.42
2018-11-21T04:58:29.535Z,93.57
2018-11-21T05:01:19.113Z,93.58
2018-11-21T05:04:08.472Z,93.42
2018-11-21T05:06:57.831Z,91.73
2018-11-21T05:09:47.078Z,91.82
2018-11-21T05:12:36.775Z,92.36
2018-11-21T05:15:26.132Z,92.47
2018-11-21T05:18:15.285Z,93.43
2018-11-21T05:21:04.928Z,93.92
2018-11-21T05:23:54.310Z,93.89
2018-11-21T05:26:43.815Z,93.93
2018-11-21T05:29:32.917Z,93.87
2018-11-21T05:32:16.956Z,92.35
2018-11-21T05:35:06.643Z,92.78
2018-11-21T05:37:53.418Z,92.67
2018-11-21T05:40:42.808Z,92.02
2018-11-21T05:43:25.096Z,91.61
2018-11-21T05:46:34.336Z,91.55
2018-11-21T05:49:20.913Z,91.43
2018-11-21T05:52:09.918Z,91.30
2018-11-21T05:54:53.382Z,90.79
2018-11-21T05:58:03.128Z,90.67
2018-11-21T06:00:49.217Z,90.21
2018-11-21T06:06:50.181Z,90.34
2018-11-21T06:09:39.655Z,89.58
2018-11-21T06:15:33.122Z,90.71
2018-11-21T06:18:15.239Z,90.81
2018-11-21T06:21:27.056Z,90.79
2018-11-21T06:24:08.855Z,91.41
2018-11-21T06:27:11.229Z,92.61
2018-11-21T06:29:53.958Z,93.52
2018-11-21T06:32:43.658Z,94.08
2018-11-21T06:35:26.577Z,94.12
2018-11-21T06:47:11.379Z,94.17
2018-11-21T06:50:00.569Z,93.72
2018-11-21T06:52:43.011Z,93.63
2018-11-21T07:13:45.041Z,91.52
2018-11-21T07:16:35.209Z,90.14
2018-11-21T07:22:17.311Z,90.29
2018-11-21T07:25:26.952Z,89.75
2018-11-21T07:28:13.064Z,89.84
2018-11-21T07:30:59.719Z,90.50
2018-11-21T07:33:46.495Z,90.66
2018-11-21T07:36:31.755Z,90.99
2018-11-21T07:42:16.841Z,89.88
2018-11-21T07:45:07.917Z,90.15
2018-11-21T07:47:50.127Z,90.02
2018-11-21T07:50:39.293Z,90.10
2018-11-21T07:53:22.171Z,90.45
2018-11-21T07:56:49.909Z,89.98
2018-11-21T07:59:38.939Z,89.47
2018-11-21T08:02:25.509Z,89.45
2018-11-21T08:05:19.870Z,89.64
2018-11-21T08:08:28.099Z,89.96
2018-11-21T08:11:37.547Z,88.99
2018-11-21T08:14:45.646Z,88.82
2018-11-21T08:17:53.717Z,89.38
2018-11-21T08:21:01.824Z,89.21
2018-11-21T08:24:09.855Z,89.12
2018-11-21T08:27:17.954Z,89.11
2018-11-21T08:29:47.647Z,88.59
2018-11-21T08:32:36.757Z,88.50
2018-11-21T08:35:18.661Z,88.86
2018-11-21T08:38:07.793Z,88.65
2018-11-21T08:40:56.953Z,88.84
2018-11-21T08:43:46.141Z,88.51
2018-11-21T08:46:35.939Z,87.54
2018-11-21T08:49:24.967Z,87.81
2018-11-21T08:52:14.022Z,87.05
2018-11-21T08:55:08.771Z,86.74
2018-11-21T08:57:45.553Z,85.45
2018-11-21T09:00:34.852Z,85.57
2018-11-21T09:03:16.598Z,84.67
2018-11-21T09:06:05.962Z,85.44
2018-11-21T09:08:47.735Z,85.78
2018-11-21T09:11:37.143Z,85.94
2018-11-21T09:14:18.867Z,85.56
2018-11-21T09:17:07.898Z,85.98
2018-11-21T09:19:50.002Z,85.70
2018-11-21T09:22:39.090Z,85.33
2018-11-21T09:25:21.624Z,84.97
2018-11-21T09:28:10.708Z,84.50
2018-11-21T09:30:52.478Z,84.59
2018-11-21T09:33:41.530Z,84.07
2018-11-21T09:36:25.016Z,84.42
2018-11-21T09:39:14.449Z,84.41
2018-11-21T09:41:56.787Z,83.86
2018-11-21T09:44:45.872Z,84.11
2018-11-21T09:47:28.023Z,84.80
2018-11-21T09:50:19.168Z,84.99
2018-11-21T09:53:01.252Z,85.24
2018-11-21T09:55:50.399Z,85.47
2018-11-21T09:58:31.973Z,85.09
2018-11-21T10:01:59.631Z,85.26
2018-11-21T10:04:41.618Z,85.36
2018-11-21T10:07:30.727Z,84.95
2018-11-21T10:10:12.946Z,85.83
2018-11-21T10:13:02.010Z,87.09
2018-11-21T10:15:43.704Z,87.01
2018-11-21T10:18:33.260Z,86.45
2018-11-21T10:21:19.989Z,85.83
2018-11-21T10:24:09.108Z,85.91
2018-11-21T10:26:51.416Z,85.68
2018-11-21T10:29:40.496Z,84.99
2018-11-21T10:32:22.590Z,84.54
2018-11-21T10:35:12.015Z,83.89
2018-11-21T10:37:54.516Z,82.90
2018-11-21T10:40:43.609Z,82.20
2018-11-21T10:43:28.465Z,82.76
2018-11-21T10:46:16.007Z,83.00
2018-11-21T10:48:58.718Z,82.72
2018-11-21T10:51:47.790Z,82.55
2018-11-21T10:54:29.578Z,82.66
2018-11-21T10:57:18.659Z,81.95
2018-11-21T11:00:00.580Z,82.03
2018-11-21T11:03:08.552Z,82.58
2018-11-21T11:06:09.572Z,82.72
2018-11-21T11:09:17.611Z,83.34
2018-11-21T11:12:18.344Z,83.70
2018-11-21T11:15:26.490Z,83.05
2018-11-21T11:18:27.325Z,82.23
2018-11-21T11:21:35.320Z,82.28
2018-11-21T11:24:35.868Z,82.11
2018-11-21T11:27:43.843Z,82.17
2018-11-21T11:30:44.836Z,81.53
2018-11-21T11:33:52.834Z,81.23
2018-11-21T11:39:57.110Z,81.04
2018-11-21T11:43:05.125Z,81.04
2018-11-21T11:46:08.870Z,81.22
2018-11-21T11:49:16.868Z,80.63
2018-11-21T11:52:18.117Z,80.93
2018-11-21T11:55:27.222Z,80.54
2018-11-21T11:58:28.352Z,80.78
2018-11-21T12:01:36.324Z,80.60
2018-11-21T12:04:43.210Z,80.36
2018-11-21T12:07:51.186Z,81.00
2018-11-21T12:10:55.234Z,80.86
2018-11-21T12:14:03.250Z,81.18
2018-11-21T12:17:03.912Z,80.67
2018-11-21T12:20:11.945Z,80.71
2018-11-21T12:23:12.961Z,80.94
2018-11-21T12:26:20.951Z,81.26
2018-11-21T12:29:22.179Z,81.85
2018-11-21T12:32:30.183Z,81.80
2018-11-21T12:35:32.717Z,82.53
2018-11-21T12:38:40.713Z,82.37
2018-11-21T12:41:41.692Z,81.15
2018-11-21T12:44:49.680Z,81.30
2018-11-21T12:47:50.860Z,80.72
2018-11-21T12:50:46.828Z,80.79
2018-11-21T12:53:48.039Z,80.47
2018-11-21T12:56:56.030Z,80.85
2018-11-21T12:59:59.263Z,80.96
2018-11-21T13:03:07.274Z,81.54
2018-11-21T13:06:09.719Z,81.94
2018-11-21T13:09:17.770Z,82.73
2018-11-21T13:12:19.693Z,83.62
2018-11-21T13:15:28.151Z,83.51
2018-11-21T13:18:31.247Z,83.51
2018-11-21T13:21:39.301Z,83.33
2018-11-21T13:24:40.525Z,83.42
2018-11-21T13:27:48.491Z,83.54
2018-11-21T13:30:55.839Z,83.28
2018-11-21T13:34:03.836Z,83.22
2018-11-21T13:36:59.668Z,83.05
2018-11-21T13:40:09.810Z,82.83
2018-11-21T13:43:11.093Z,82.60
2018-11-21T13:46:19.062Z,81.25
2018-11-21T13:55:01.523Z,81.24
2018-11-21T13:57:51.185Z,81.57
2018-11-21T14:00:40.224Z,81.43
2018-11-21T14:03:29.651Z,81.73
2018-11-21T14:06:18.805Z,81.90
2018-11-21T14:09:10.667Z,81.67
2018-11-21T14:11:52.514Z,81.36
2018-11-21T14:14:41.620Z,81.48
2018-11-21T14:17:27.676Z,80.82
2018-11-21T14:20:13.555Z,80.75
2018-11-21T14:22:55.987Z,80.54
2018-11-21T14:25:45.898Z,80.72
2018-11-21T14:28:32.234Z,80.94
2018-11-21T14:31:21.286Z,80.95
2018-11-21T14:34:03.290Z,81.50
2018-11-21T14:36:52.352Z,81.89
2018-11-21T14:39:34.535Z,81.58
2018-11-21T14:42:23.579Z,81.04
2018-11-21T14:45:31.729Z,80.37
2018-11-21T14:48:15.366Z,80.14
2018-11-21T14:51:01.036Z,79.66
2018-11-21T14:53:43.728Z,79.54
2018-11-21T14:56:32.932Z,79.26
2018-11-21T14:59:22.184Z,79.81
2018-11-21T15:02:11.375Z,78.89
2018-11-21T15:05:00.487Z,79.54
2018-11-21T15:07:49.516Z,79.30
2018-11-21T15:10:38.588Z,79.70
2018-11-21T15:13:27.654Z,79.31
2018-11-21T15:16:09.572Z,79.66
2018-11-21T15:18:58.650Z,79.45
2018-11-21T15:21:40.884Z,79.35
2018-11-21T15:24:29.894Z,78.91
2018-11-21T15:27:11.830Z,79.14
2018-11-21T15:30:01.050Z,79.65
2018-11-21T15:32:42.863Z,79.82
2018-11-21T15:35:31.893Z,79.39
2018-11-21T15:38:13.735Z,79.86
2018-11-21T15:41:02.820Z,79.83
2018-11-21T15:43:44.879Z,79.92
2018-11-21T15:46:33.980Z,79.51
2018-11-21T15:52:14.691Z,82.18
2018-11-21T15:54:56.926Z,85.34
2018-11-21T15:57:46.068Z,86.36
2018-11-21T16:00:36.124Z,87.44
2018-11-21T16:03:25.408Z,88.32
2018-11-21T16:06:14.612Z,88.96
2018-11-21T16:09:03.821Z,89.47
2018-11-21T16:11:52.951Z,89.93
2018-11-21T16:14:42.065Z,90.52
2018-11-21T16:17:31.212Z,91.51
2018-11-21T16:20:20.596Z,92.10
2018-11-21T16:23:09.994Z,92.68
2018-11-21T16:25:59.113Z,92.79
2018-11-21T16:28:48.274Z,92.98
2018-11-21T16:31:17.984Z,93.08
2018-11-21T16:34:07.240Z,93.24
2018-11-21T16:36:56.348Z,93.30
2018-11-21T16:39:45.491Z,93.37
2018-11-21T16:42:34.750Z,93.37
2018-11-21T16:48:06.820Z,93.48
2018-11-21T16:50:55.919Z,93.64
2018-11-21T16:53:37.704Z,93.81
2018-11-21T16:56:26.766Z,93.66
2018-11-21T17:02:20.760Z,93.53
2018-11-21T17:05:03.827Z,93.53
2018-11-21T17:07:47.181Z,93.77
2018-11-21T17:10:36.273Z,93.82
2018-11-21T17:13:18.081Z,94.01
2018-11-21T17:16:07.154Z,94.37
2018-11-21T17:18:52.873Z,94.57
2018-11-21T17:21:41.921Z,94.65
2018-11-21T17:24:24.319Z,94.75
2018-11-21T17:27:13.348Z,94.58
2018-11-21T17:29:55.362Z,94.69
2018-11-21T17:32:44.497Z,94.73
2018-11-21T17:35:29.733Z,94.53
2018-11-21T17:38:18.820Z,94.51
2018-11-21T17:41:07.877Z,94.60
2018-11-21T17:43:50.453Z,94.79
2018-11-21T17:46:33.154Z,94.80
2018-11-21T17:49:22.283Z,95.15
2018-11-21T17:52:12.066Z,95.21
2018-11-21T17:55:02.326Z,95.21
2018-11-21T18:03:41.157Z,95.37
2018-11-21T18:06:31.367Z,95.13
2018-11-21T18:09:21.793Z,95.15
2018-11-21T18:12:13.885Z,95.09
2018-11-21T18:15:23.397Z,95.24
2018-11-21T18:27:41.327Z,95.39
2018-11-21T18:30:31.671Z,95.53
2018-11-21T18:33:16.182Z,95.49
2018-11-21T18:36:05.502Z,95.50
2018-11-21T18:41:52.740Z,95.59
2018-11-21T18:44:42.252Z,95.54
2018-11-21T18:50:30.755Z,95.60
2018-11-21T18:53:18.020Z,95.74
2018-11-21T18:56:03.847Z,95.82
2018-11-21T18:58:59.138Z,95.87
2018-11-21T19:04:41.413Z,96.21
2018-11-21T19:07:30.831Z,96.19
2018-11-21T19:22:23.118Z,96.00
2018-11-21T19:25:13.614Z,95.84
2018-11-21T19:27:58.088Z,95.75
2018-11-21T19:33:48.205Z,95.66
2018-11-21T19:36:34.914Z,95.70
2018-11-21T19:45:09.486Z,95.57
2018-11-21T19:47:59.066Z,95.56
2018-11-21T19:51:10.816Z,95.67
2018-11-21T19:53:54.659Z,95.58
2018-11-21T19:56:39.948Z,95.56
2018-11-21T19:59:22.756Z,95.43
2018-11-21T20:02:12.513Z,95.24
2018-11-21T20:05:01.795Z,95.33
2018-11-21T20:07:51.094Z,95.19
2018-11-21T20:10:33.345Z,95.18
2018-11-21T20:13:22.403Z,94.82
2018-11-21T20:16:04.052Z,94.71
2018-11-21T20:18:53.257Z,94.59
2018-11-21T20:21:42.400Z,94.51
2018-11-21T20:24:31.566Z,94.56
2018-11-21T20:27:20.723Z,94.10
2018-11-21T20:29:54.655Z,94.17
2018-11-21T20:32:20.155Z,93.98
2018-11-21T20:34:49.908Z,94.42
2018-11-21T20:37:39.567Z,94.67
2018-11-21T20:40:31.368Z,94.81
2018-11-21T20:43:20.532Z,94.98
2018-11-21T20:46:09.648Z,95.16
2018-11-21T20:48:59.242Z,95.51
2018-11-21T20:51:28.990Z,95.84
2018-11-21T20:54:18.121Z,96.06
2018-11-21T20:57:00.146Z,96.27
2018-11-21T20:59:49.325Z,96.35
2018-11-21T21:02:39.207Z,96.62
2018-11-21T21:05:28.652Z,96.92
2018-11-21T21:08:17.812Z,97.37
2018-11-21T21:11:07.399Z,97.74
2018-11-21T21:16:39.057Z,97.75
2018-11-21T21:19:28.512Z,98.09
2018-11-21T21:22:10.465Z,98.14
2018-11-21T21:25:02.271Z,98.35
2018-11-21T21:27:44.196Z,98.44
2018-11-21T21:30:34.018Z,98.61
2018-11-21T21:33:16.779Z,98.64
2018-11-21T21:36:06.047Z,98.77
2018-11-21T21:38:48.276Z,99.00
2018-11-21T21:41:37.357Z,99.27
2018-11-21T21:44:19.379Z,99.38
2018-11-21T21:47:08.432Z,99.45
2018-11-21T21:49:54.721Z,99.48
2018-11-21T21:52:43.806Z,99.59
2018-11-21T21:55:26.751Z,99.76
2018-11-21T21:58:15.816Z,99.75
2018-11-21T22:00:57.823Z,99.91
2018-11-21T22:03:47.111Z,99.83
2018-11-21T22:06:36.027Z,99.90
2018-11-21T22:09:25.140Z,99.97
2018-11-21T22:12:07.302Z,99.87
2018-11-21T22:14:56.373Z,99.85
2018-11-21T22:17:39.037Z,99.87
2018-11-21T22:20:28.149Z,99.82
2018-11-21T22:23:09.865Z,99.75
2018-11-21T22:25:59.017Z,99.68
2018-11-21T22:28:42.723Z,99.35
2018-11-21T22:31:32.186Z,99.17
2018-11-21T22:34:14.719Z,98.81
2018-11-21T22:37:04.135Z,98.59
2018-11-21T22:42:58.511Z,98.35
2018-11-21T22:45:47.637Z,98.18
2018-11-21T22:48:29.583Z,98.10
2018-11-21T22:51:18.662Z,98.10
2018-11-21T22:54:00.909Z,98.13
2018-11-21T22:56:50.459Z,98.10
2018-11-21T22:59:33.216Z,97.91
2018-11-21T23:02:22.323Z,97.66
2018-11-21T23:05:04.443Z,96.77
2018-11-21T23:07:53.569Z,96.81
2018-11-21T23:10:35.726Z,97.39
2018-11-21T23:13:25.702Z,97.55
2018-11-21T23:16:07.509Z,97.62
2018-11-21T23:18:56.645Z,97.65
2018-11-21T23:21:38.822Z,97.83
2018-11-21T23:24:28.152Z,98.12
2018-11-21T23:27:10.698Z,98.34
2018-11-21T23:30:00.622Z,98.59
2018-11-21T23:32:43.532Z,98.65
2018-11-21T23:35:33.469Z,98.86
2018-11-21T23:38:22.932Z,99.06
2018-11-21T23:41:06.340Z,99.13
2018-11-21T23:43:55.490Z,99.13
2018-11-21T23:46:45.022Z,99.19
2018-11-21T23:49:34.602Z,99.32
2018-11-21T23:52:24.050Z,99.49
2018-11-21T23:55:15.572Z,99.31
2018-11-21T23:58:04.889Z,99.17
